Time;durP1;ratioP1;P1;durP2;ratioP2;P2;SDS_P1;SDS_P2;PMS_P1;PMS_P2;Temp;Humidity;BMP_temperature;BMP_pressure;BME280_temperature;BME280_humidity;BME280_pressure;Samples;Min_cycle;Max_cycle;Signal;HPM_P1;HPM_P2
2022/01/18 00:00:04;;;;;;;44.13;27.03;;;;;;;3.98;89.53;102398.53;4953868;29;20561;-79
2022/01/18 00:02:29;;;;;;;46.30;26.30;;;;;;;4.00;89.43;102408.09;4956218;29;20417;-79
2022/01/18 00:04:55;;;;;;;40.87;25.37;;;;;;;4.03;89.55;102404.25;4939061;29;20471;-79
2022/01/18 00:07:20;;;;;;;44.37;25.93;;;;;;;4.02;89.46;102403.41;4955745;29;20406;-79
2022/01/18 00:09:45;;;;;;;44.42;27.33;;;;;;;3.95;89.62;102391.59;4949380;29;20479;-79
2022/01/18 00:15:17;;;;;;;44.90;27.85;;;;;;;4.00;89.55;102401.88;4948247;29;20444;-79
2022/01/18 00:17:51;;;;;;;43.17;26.38;;;;;;;3.98;89.77;102410.09;4955897;29;20420;-78
2022/01/18 00:20:20;;;;;;;42.75;26.17;;;;;;;4.03;89.72;102407.78;4954076;29;20417;-79
2022/01/18 00:22:46;;;;;;;41.88;26.25;;;;;;;4.00;89.70;102402.72;4955373;29;20912;-79
2022/01/18 00:25:11;;;;;;;43.73;26.67;;;;;;;4.01;89.54;102406.25;4954441;28;20394;-79
2022/01/18 00:27:36;;;;;;;43.13;26.90;;;;;;;4.00;89.27;102409.94;4955267;29;20421;-79
2022/01/18 00:32:58;;;;;;;41.55;26.48;;;;;;;3.98;89.79;102420.84;4956054;29;20469;-79
2022/01/18 00:35:25;;;;;;;42.53;26.45;;;;;;;4.01;89.64;102425.88;4955789;29;20398;-79
2022/01/18 00:37:54;;;;;;;41.88;26.60;;;;;;;4.03;89.65;102423.88;4955263;29;20410;-79
2022/01/18 00:40:19;;;;;;;44.10;27.05;;;;;;;4.09;89.43;102430.47;4930715;29;20517;-80
2022/01/18 00:42:45;;;;;;;44.70;25.95;;;;;;;4.12;89.29;102422.09;4955550;29;20828;-79
2022/01/18 00:45:10;;;;;;;45.47;26.40;;;;;;;4.05;89.41;102426.41;4938359;29;20414;-79
2022/01/18 00:47:36;;;;;;;42.60;25.83;;;;;;;4.06;89.03;102420.88;4955133;29;20782;-79
2022/01/18 00:50:03;;;;;;;44.17;26.13;;;;;;;4.13;89.18;102427.31;4954022;29;20430;-79
2022/01/18 00:52:32;;;;;;;45.60;25.92;;;;;;;4.09;89.10;102422.41;4955101;29;20505;-79
2022/01/18 00:55:00;;;;;;;40.75;25.55;;;;;;;4.04;89.50;102422.03;4938257;29;20422;-79
2022/01/18 00:57:25;;;;;;;44.95;25.95;;;;;;;4.03;89.53;102421.19;4938333;29;20743;-79
2022/01/18 00:59:51;;;;;;;45.87;25.33;;;;;;;4.07;89.25;102419.06;4953947;29;20442;-78
2022/01/18 01:02:18;;;;;;;46.07;27.07;;;;;;;4.09;89.05;102417.03;4953456;29;20472;-79
2022/01/18 01:04:48;;;;;;;41.58;26.83;;;;;;;4.09;89.08;102423.25;4955263;29;20480;-79
2022/01/18 01:07:15;;;;;;;47.60;28.73;;;;;;;4.06;89.22;102428.94;4954807;29;20409;-79
2022/01/18 01:09:41;;;;;;;48.65;29.80;;;;;;;4.00;89.23;102428.72;4953846;29;20422;-79
2022/01/18 01:12:07;;;;;;;49.47;30.88;;;;;;;4.06;89.37;102428.94;4955051;29;20404;-79
2022/01/18 01:14:33;;;;;;;48.70;30.25;;;;;;;4.06;89.21;102430.78;4955113;29;20785;-79
2022/01/18 01:31:58;;;;;;;45.15;26.98;;;;;;;4.09;89.14;102420.56;4946391;29;20417;-79
2022/01/18 01:46:45;;;;;;;42.78;25.25;;;;;;;4.13;89.56;102430.00;4954662;29;20493;-78
2022/01/18 01:49:13;;;;;;;38.13;24.70;;;;;;;4.12;89.55;102425.63;4954167;29;20540;-80
2022/01/18 01:51:40;;;;;;;41.80;25.00;;;;;;;4.15;89.40;102427.16;4954210;29;20402;-80
2022/01/18 01:54:09;;;;;;;39.20;23.73;;;;;;;4.16;89.29;102429.69;4954245;29;20394;-79
2022/01/18 01:56:35;;;;;;;42.88;25.10;;;;;;;4.17;89.32;102430.53;4954177;29;20409;-80
2022/01/18 01:59:02;;;;;;;39.80;24.40;;;;;;;4.16;89.43;102428.84;4954317;29;20437;-80
2022/01/18 02:01:28;;;;;;;35.40;22.77;;;;;;;4.18;89.46;102429.56;4934361;29;20781;-80
2022/01/18 02:03:53;;;;;;;41.53;24.87;;;;;;;4.18;88.91;102421.50;4954156;29;20413;-79
2022/01/18 02:06:19;;;;;;;37.28;23.90;;;;;;;4.18;89.41;102419.63;4954153;29;20869;-80
2022/01/18 02:08:44;;;;;;;38.45;23.58;;;;;;;4.19;89.38;102426.69;4954021;29;20414;-80
2022/01/18 02:11:10;;;;;;;35.67;23.60;;;;;;;4.20;89.30;102422.19;4950251;29;20413;-81
2022/01/18 02:13:36;;;;;;;41.63;25.63;;;;;;;4.21;89.17;102417.66;4953908;29;20398;-80
2022/01/18 02:23:57;;;;;;;36.72;23.38;;;;;;;4.15;89.41;102406.53;4946622;29;20518;-80
2022/01/18 02:26:22;;;;;;;36.27;23.17;;;;;;;4.16;89.28;102408.22;4939144;29;20410;-80
2022/01/18 02:28:48;;;;;;;36.47;22.87;;;;;;;4.22;89.39;102419.31;4951438;29;20425;-80
2022/01/18 02:31:13;;;;;;;35.50;23.23;;;;;;;4.22;89.45;102408.59;4953705;29;20897;-80
2022/01/18 02:33:38;;;;;;;33.17;21.73;;;;;;;4.22;88.65;102408.59;4953567;29;20397;-80
2022/01/18 02:36:07;;;;;;;34.70;21.87;;;;;;;4.18;89.29;102414.28;4953653;29;20398;-80
2022/01/18 02:38:33;;;;;;;37.33;22.07;;;;;;;4.19;89.08;102415.97;4951228;29;20511;-80
2022/01/18 02:40:59;;;;;;;30.15;20.20;;;;;;;4.16;89.15;102410.91;4949346;29;20464;-80
2022/01/18 02:46:08;;;;;;;32.40;21.90;;;;;;;4.10;89.75;102416.91;4953582;29;20405;-80
2022/01/18 02:48:33;;;;;;;32.07;20.13;;;;;;;4.13;89.56;102413.91;4951782;28;20409;-80
2022/01/18 02:50:58;;;;;;;30.83;19.52;;;;;;;4.11;89.61;102407.88;4953464;29;20553;-79
2022/01/18 02:53:24;;;;;;;30.37;19.63;;;;;;;4.05;89.80;102402.28;4953211;29;20409;-79
2022/01/18 02:55:51;;;;;;;27.53;19.20;;;;;;;4.05;89.69;102410.31;4953263;29;20488;-79
2022/01/18 02:58:24;;;;;;;30.77;19.63;;;;;;;4.07;89.83;102405.63;4950603;29;20901;-80
2022/01/18 03:03:35;;;;;;;29.88;21.40;;;;;;;4.08;89.76;102404.66;4953502;29;20406;-80
2022/01/18 03:06:01;;;;;;;33.60;21.67;;;;;;;3.97;90.16;102410.25;4953330;29;20402;-80
2022/01/18 03:08:27;;;;;;;34.20;22.38;;;;;;;3.95;90.48;102406.88;4934437;29;20433;-80
2022/01/18 03:10:53;;;;;;;35.90;22.88;;;;;;;4.01;89.93;102411.63;4952295;29;20432;-80
2022/01/18 03:13:19;;;;;;;37.28;23.45;;;;;;;3.99;90.43;102409.09;4953328;29;20413;-80
2022/01/18 03:15:45;;;;;;;37.25;23.67;;;;;;;4.06;90.24;102418.19;4936147;29;20398;-80
2022/01/18 03:18:10;;;;;;;43.47;26.20;;;;;;;4.11;89.95;102413.22;4952293;29;20421;-80
2022/01/18 03:20:37;;;;;;;45.03;26.33;;;;;;;4.09;89.51;102407.16;4953455;29;20986;-80
2022/01/18 03:23:07;;;;;;;43.65;26.85;;;;;;;4.09;89.78;102406.31;4935216;29;20410;-80
2022/01/18 03:28:04;;;;;;;47.80;26.40;;;;;;;4.07;90.12;102414.53;4951884;29;20765;-80
2022/01/18 03:30:31;;;;;;;40.10;25.63;;;;;;;4.05;90.12;102413.00;4952636;29;20413;-80
2022/01/18 03:32:56;;;;;;;38.33;24.48;;;;;;;4.05;90.25;102403.09;4935804;29;20765;-80
2022/01/18 03:35:23;;;;;;;42.87;26.50;;;;;;;4.02;90.43;102406.09;4953144;29;20397;-80
2022/01/18 03:37:48;;;;;;;45.80;29.05;;;;;;;4.04;90.11;102401.44;4951974;29;20416;-80
2022/01/18 03:40:14;;;;;;;46.93;28.90;;;;;;;4.08;90.11;102400.09;4952688;29;20409;-80
2022/01/18 03:42:45;;;;;;;44.37;28.80;;;;;;;4.15;89.57;102406.53;4935746;29;20425;-80
2022/01/18 03:45:32;;;;;;;44.22;28.10;;;;;;;4.22;89.55;102405.91;4945433;29;20528;-80
2022/01/18 03:48:03;;;;;;;47.28;28.63;;;;;;;4.24;89.61;102409.28;4952392;29;20449;-80
2022/01/18 03:50:28;;;;;;;45.95;28.60;;;;;;;4.27;89.41;102415.19;4953005;29;20790;-80
2022/01/18 03:52:54;;;;;;;46.35;28.45;;;;;;;4.25;89.39;102402.94;4952858;29;20402;-80
2022/01/18 03:55:22;;;;;;;43.90;26.55;;;;;;;4.28;89.44;102405.31;4952288;29;20426;-80
2022/01/18 03:57:48;;;;;;;42.78;27.02;;;;;;;4.30;89.01;102411.34;4934714;29;20406;-80
2022/01/18 04:00:16;;;;;;;41.45;27.15;;;;;;;4.31;89.31;102408.53;4953392;28;20425;-80
2022/01/18 04:02:42;;;;;;;40.78;25.23;;;;;;;4.32;88.84;102410.19;4955648;29;20428;-80
2022/01/18 04:05:08;;;;;;;41.13;25.60;;;;;;;4.31;88.93;102413.88;4956415;29;20398;-80
2022/01/18 04:07:34;;;;;;;40.92;24.48;;;;;;;4.30;89.03;102417.56;4956264;29;20481;-80
2022/01/18 04:10:00;;;;;;;40.47;25.52;;;;;;;4.28;89.14;102413.34;4954514;29;20506;-81
2022/01/18 04:12:25;;;;;;;37.47;23.80;;;;;;;4.28;88.87;102422.22;4955794;29;20512;-81
2022/01/18 04:14:50;;;;;;;42.83;27.00;;;;;;;4.29;88.93;102418.56;4955915;29;20830;-80
2022/01/18 04:17:47;;;;;;;42.23;25.77;;;;;;;4.32;88.83;102420.91;4936728;29;20493;-79
2022/01/18 04:28:34;;;;;;;40.38;25.75;;;;;;;4.39;88.59;102421.97;4955063;29;20422;-80
2022/01/18 04:31:00;;;;;;;36.88;24.60;;;;;;;4.38;88.44;102420.28;4956020;29;20500;-80
2022/01/18 04:33:25;;;;;;;42.65;25.27;;;;;;;4.37;88.55;102418.63;4955611;29;20513;-81
2022/01/18 04:35:51;;;;;;;41.72;26.33;;;;;;;4.34;88.37;102420.78;4955753;29;20413;-80
2022/01/18 04:38:16;;;;;;;41.90;25.27;;;;;;;4.32;88.79;102420.91;4954887;29;20421;-80
2022/01/18 04:40:44;;;;;;;43.23;26.30;;;;;;;4.32;88.47;102417.38;4955780;29;20493;-80
2022/01/18 04:48:33;;;;;;;43.58;27.52;;;;;;;4.28;88.93;102427.59;4941250;29;21029;-79
2022/01/18 04:51:02;;;;;;;44.05;26.85;;;;;;;4.28;88.85;102422.22;4955575;29;20414;-80
2022/01/18 04:53:31;;;;;;;43.67;27.65;;;;;;;4.29;88.84;102433.81;4955144;29;20436;-80
2022/01/18 04:56:01;;;;;;;45.00;27.60;;;;;;;4.30;88.84;102424.75;4953449;29;20425;-80
2022/01/18 04:58:26;;;;;;;47.70;27.52;;;;;;;4.30;88.76;102419.41;4955448;29;20417;-80
2022/01/18 05:00:54;;;;;;;39.40;26.50;;;;;;;4.26;89.02;102412.66;4952011;29;20968;-80
2022/01/18 05:03:20;;;;;;;47.30;26.63;;;;;;;4.26;89.14;102420.69;4937397;29;20421;-80
2022/01/18 05:05:48;;;;;;;40.70;25.75;;;;;;;4.24;89.02;102434.28;4950927;29;20411;-80
2022/01/18 05:08:14;;;;;;;45.63;29.08;;;;;;;4.24;88.54;102433.44;4947843;29;20450;-80
2022/01/18 05:10:44;;;;;;;50.55;31.20;;;;;;;4.25;88.84;102432.47;4956448;28;20445;-80
2022/01/18 05:16:06;;;;;;;43.80;29.43;;;;;;;4.26;89.28;102445.69;4943152;29;20413;-80
2022/01/18 05:23:34;;;;;;;46.15;29.48;;;;;;;4.26;89.24;102436.81;4940569;29;20453;-80
2022/01/18 05:25:59;;;;;;;52.23;32.63;;;;;;;4.28;89.08;102434.81;4954078;29;20850;-80
2022/01/18 05:28:25;;;;;;;43.77;28.67;;;;;;;4.26;89.30;102432.28;4954783;29;20412;-79
2022/01/18 05:30:50;;;;;;;46.63;28.77;;;;;;;4.26;89.24;102436.81;4952061;29;20460;-80
2022/01/18 05:33:15;;;;;;;44.67;29.43;;;;;;;4.27;89.23;102433.97;4932970;29;20474;-80
2022/01/18 05:35:41;;;;;;;43.63;27.43;;;;;;;4.25;88.96;102433.28;4953208;29;20426;-80
2022/01/18 05:38:06;;;;;;;55.43;32.80;;;;;;;4.26;89.02;102440.34;4954730;29;20618;-80
2022/01/18 05:40:32;;;;;;;48.87;30.10;;;;;;;4.26;89.14;102437.66;4949072;28;20426;-80
2022/01/18 05:42:57;;;;;;;97.88;50.75;;;;;;;4.23;88.99;102432.59;4954214;29;20921;-80
2022/01/18 05:45:23;;;;;;;102.87;53.50;;;;;;;4.23;88.77;102437.13;4936066;29;20943;-80
2022/01/18 05:47:48;;;;;;;76.97;42.33;;;;;;;4.21;89.06;102434.59;4954446;29;20402;-80
2022/01/18 05:50:14;;;;;;;69.73;38.83;;;;;;;4.20;88.92;102435.59;4953076;29;20406;-80
2022/01/18 05:52:41;;;;;;;56.97;34.40;;;;;;;4.17;89.27;102438.59;4954229;29;20402;-80
2022/01/18 05:55:08;;;;;;;53.43;32.13;;;;;;;4.17;88.96;102444.81;4953897;29;20425;-80
2022/01/18 05:57:34;;;;;;;59.40;35.65;;;;;;;4.15;89.11;102445.94;4953114;28;20877;-80
2022/01/18 06:00:04;;;;;;;56.42;35.30;;;;;;;4.15;89.32;102445.94;4953857;29;20405;-80
2022/01/18 06:02:48;;;;;;;53.55;32.75;;;;;;;4.13;89.29;102446.09;4953979;29;20513;-80
2022/01/18 06:07:58;;;;;;;57.67;35.20;;;;;;;4.11;89.58;102463.38;4952458;29;20568;-80
2022/01/18 06:10:24;;;;;;;51.80;32.83;;;;;;;4.12;89.46;102462.34;4953244;29;20488;-80
2022/01/18 06:12:49;;;;;;;53.42;31.05;;;;;;;4.10;89.73;102467.88;4954028;29;20901;-80
2022/01/18 06:15:15;;;;;;;53.55;31.70;;;;;;;4.11;89.73;102468.72;4952981;28;20900;-80
2022/01/18 06:17:41;;;;;;;50.75;28.95;;;;;;;4.11;89.26;102469.56;4942516;28;20807;-80
2022/01/18 06:20:07;;;;;;;52.73;30.87;;;;;;;4.10;89.33;102461.66;4950696;29;20394;-80
2022/01/18 06:22:33;;;;;;;53.37;30.63;;;;;;;4.09;89.14;102466.19;4951203;28;20484;-81
2022/01/18 06:24:58;;;;;;;56.57;33.37;;;;;;;4.07;89.06;102462.81;4947758;28;20422;-80
2022/01/18 06:27:23;;;;;;;50.20;31.50;;;;;;;4.05;89.17;102464.78;4953368;28;20563;-80
2022/01/18 06:29:49;;;;;;;51.45;30.17;;;;;;;4.01;89.28;102463.44;4953973;28;20412;-80
2022/01/18 06:32:14;;;;;;;51.03;31.90;;;;;;;4.02;89.26;102464.25;4954181;28;20402;-80
2022/01/18 06:34:39;;;;;;;46.03;29.57;;;;;;;4.01;89.50;102466.13;4953405;29;20398;-80
2022/01/18 06:37:05;;;;;;;49.43;29.20;;;;;;;3.99;89.28;102462.72;4955976;28;20430;-80
2022/01/18 06:39:30;;;;;;;44.67;28.17;;;;;;;3.98;89.17;102462.91;4957142;28;20410;-80
2022/01/18 06:41:55;;;;;;;49.63;29.47;;;;;;;3.96;89.79;102468.41;4953644;29;20424;-80
2022/01/18 06:44:22;;;;;;;43.30;28.17;;;;;;;3.94;89.39;102473.09;4953757;28;20409;-80
2022/01/18 06:46:47;;;;;;;50.78;29.13;;;;;;;3.95;89.65;102479.31;4950738;28;20446;-80
2022/01/18 06:49:13;;;;;;;45.87;28.30;;;;;;;3.93;89.45;102476.75;4936101;29;20850;-81
2022/01/18 06:51:38;;;;;;;50.60;28.37;;;;;;;3.90;89.56;102489.63;4958013;28;20404;-81
2022/01/18 06:54:03;;;;;;;51.00;27.77;;;;;;;3.88;89.71;102492.50;4953080;28;20406;-82
2022/01/18 06:56:29;;;;;;;47.37;28.87;;;;;;;3.89;89.64;102485.25;4949127;29;20510;-80
2022/01/18 06:58:54;;;;;;;48.83;28.23;;;;;;;3.90;89.78;102503.91;4959722;28;20494;-80
2022/01/18 07:01:20;;;;;;;47.80;27.33;;;;;;;3.90;89.61;102497.69;4949662;28;20433;-79
2022/01/18 07:03:48;;;;;;;45.80;27.43;;;;;;;3.92;89.70;102495.72;4948722;29;20414;-79
2022/01/18 07:06:14;;;;;;;48.70;27.30;;;;;;;3.93;89.90;102489.31;4953221;29;20884;-79
2022/01/18 07:08:39;;;;;;;46.23;26.63;;;;;;;3.94;89.43;102505.28;4952602;29;20413;-79
2022/01/18 07:11:06;;;;;;;41.87;26.07;;;;;;;3.93;89.79;102500.91;4953287;29;20881;-79
2022/01/18 07:13:31;;;;;;;41.33;26.08;;;;;;;3.93;89.23;102500.91;4950351;29;20464;-79
2022/01/18 07:15:57;;;;;;;40.40;24.83;;;;;;;3.93;89.52;102498.22;4953285;29;20430;-80
2022/01/18 07:18:22;;;;;;;43.08;25.42;;;;;;;3.94;89.21;102501.75;4952452;29;20412;-79
2022/01/18 07:20:47;;;;;;;42.03;26.17;;;;;;;3.94;89.79;102507.97;4952697;29;20414;-80
2022/01/18 07:23:13;;;;;;;44.10;26.57;;;;;;;3.95;89.48;102514.19;4951645;29;20529;-80
2022/01/18 07:25:43;;;;;;;42.65;26.75;;;;;;;3.96;89.61;102508.66;4953222;29;20410;-79
2022/01/18 07:28:09;;;;;;;45.88;27.38;;;;;;;3.98;89.19;102511.19;4952470;29;20794;-80
2022/01/18 07:30:36;;;;;;;45.00;27.65;;;;;;;3.99;89.44;102507.50;4954068;28;20414;-79
2022/01/18 07:33:02;;;;;;;43.55;26.85;;;;;;;4.02;89.33;102516.09;4960762;28;20857;-80
2022/01/18 07:35:28;;;;;;;50.50;27.60;;;;;;;4.04;89.44;102514.09;4944677;29;20442;-79
2022/01/18 07:37:53;;;;;;;46.63;27.80;;;;;;;4.02;89.39;102523.28;4955671;29;20776;-79
2022/01/18 07:40:18;;;;;;;47.83;26.93;;;;;;;4.03;89.43;102516.94;4956542;29;20409;-80
2022/01/18 07:42:44;;;;;;;43.77;26.87;;;;;;;4.05;89.31;102523.81;4955269;29;20413;-80
2022/01/18 07:45:10;;;;;;;47.42;27.02;;;;;;;4.12;89.27;102542.84;4955014;29;20417;-80
2022/01/18 07:47:35;;;;;;;48.33;29.42;;;;;;;4.14;89.26;102536.34;4956348;29;20766;-80
2022/01/18 07:50:00;;;;;;;45.22;27.75;;;;;;;4.17;89.27;102537.88;4939450;29;20761;-79
2022/01/18 07:52:26;;;;;;;51.47;28.40;;;;;;;4.19;89.33;102538.56;4956739;29;20390;-79
2022/01/18 07:54:51;;;;;;;48.60;30.17;;;;;;;4.26;89.36;102531.59;4954648;29;20410;-80
2022/01/18 07:57:19;;;;;;;50.90;29.73;;;;;;;4.29;89.15;102527.75;4969847;28;20432;-80
2022/01/18 07:59:44;;;;;;;44.70;27.65;;;;;;;4.33;88.76;102532.66;4957010;29;20477;-79
2022/01/18 08:02:09;;;;;;;48.03;29.03;;;;;;;4.35;88.93;102538.72;4956346;29;20853;-80
2022/01/18 08:04:35;;;;;;;51.00;30.70;;;;;;;4.37;89.16;102536.72;4952468;29;20445;-81
2022/01/18 08:07:00;;;;;;;42.60;28.75;;;;;;;4.39;88.42;102539.25;4938240;29;20478;-80
2022/01/18 08:09:25;;;;;;;42.23;26.33;;;;;;;4.39;88.39;102531.19;4956252;29;20500;-79
2022/01/18 08:11:52;;;;;;;42.27;25.77;;;;;;;4.42;88.91;102528.19;4955963;29;20857;-80
2022/01/18 08:14:18;;;;;;;42.90;24.65;;;;;;;4.48;88.40;102530.28;4954006;29;20889;-79
2022/01/18 08:17:00;;;;;;;41.80;25.02;;;;;;;4.49;87.90;102534.63;4938814;29;20425;-78
2022/01/18 08:19:29;;;;;;;35.60;23.15;;;;;;;4.46;88.56;102534.94;4947933;29;20469;-81
2022/01/18 08:21:55;;;;;;;38.63;24.45;;;;;;;4.49;88.36;102532.81;4958420;28;20458;-79
2022/01/18 08:24:20;;;;;;;40.63;25.10;;;;;;;4.52;88.17;102537.84;4939146;28;20515;-79
2022/01/18 08:26:49;;;;;;;39.10;24.37;;;;;;;4.57;88.42;102532.88;4955333;28;20429;-79
2022/01/18 08:29:14;;;;;;;34.70;22.35;;;;;;;4.59;88.42;102540.78;4959297;28;20885;-80
2022/01/18 08:31:40;;;;;;;38.53;22.58;;;;;;;4.58;88.41;102531.00;4955409;29;20413;-80
2022/01/18 08:34:06;;;;;;;35.90;22.33;;;;;;;4.62;88.33;102525.19;4957733;28;20486;-79
2022/01/18 08:36:31;;;;;;;35.60;22.27;;;;;;;4.66;87.83;102523.88;4938167;29;20433;-79
2022/01/18 08:38:57;;;;;;;44.10;23.85;;;;;;;4.62;88.10;102537.78;4955797;29;20430;-79
2022/01/18 08:41:22;;;;;;;38.75;23.67;;;;;;;4.65;88.54;102532.09;4957107;28;20414;-79
2022/01/18 08:43:49;;;;;;;42.37;24.53;;;;;;;4.74;88.42;102525.81;4944958;28;20425;-80
2022/01/18 08:46:15;;;;;;;46.88;26.25;;;;;;;4.82;88.06;102527.69;4954366;28;20406;-80
2022/01/18 08:48:41;;;;;;;43.42;25.92;;;;;;;4.85;87.67;102525.53;4956786;28;20406;-78
2022/01/18 08:51:07;;;;;;;42.30;26.80;;;;;;;4.85;87.82;102528.22;4955175;29;20464;-79
2022/01/18 08:53:32;;;;;;;44.33;28.20;;;;;;;4.90;87.70;102527.75;4949406;28;20414;-80
2022/01/18 08:55:58;;;;;;;43.47;28.17;;;;;;;4.94;87.78;102529.13;4939398;28;20432;-80
2022/01/18 08:58:25;;;;;;;41.37;27.43;;;;;;;4.97;87.79;102535.00;4964469;28;20417;-80
2022/01/18 09:00:51;;;;;;;43.28;28.77;;;;;;;5.09;87.54;102528.38;4950151;28;20878;-79
2022/01/18 09:03:16;;;;;;;46.58;28.65;;;;;;;5.18;87.29;102529.25;4946299;28;20491;-79
2022/01/18 09:05:44;;;;;;;43.80;28.23;;;;;;;5.23;87.54;102524.28;4955009;28;20440;-79
2022/01/18 09:08:11;;;;;;;48.30;29.95;;;;;;;5.32;87.23;102520.63;4950906;28;20448;-79
2022/01/18 09:10:37;;;;;;;45.78;31.25;;;;;;;5.38;86.61;102524.50;4951020;29;20449;-79
2022/01/18 09:13:02;;;;;;;52.73;31.70;;;;;;;5.55;86.47;102518.19;4953362;28;20464;-79
2022/01/18 09:15:27;;;;;;;48.23;30.50;;;;;;;5.72;85.75;102522.63;4954883;28;20417;-79
2022/01/18 09:17:53;;;;;;;49.03;32.27;;;;;;;5.90;85.16;102530.59;4954989;28;20508;-81
2022/01/18 09:20:19;;;;;;;47.33;29.77;;;;;;;6.11;85.20;102529.16;4952541;28;20417;-80
2022/01/18 09:22:48;;;;;;;48.13;28.93;;;;;;;6.19;84.15;102518.38;4954139;29;20504;-79
2022/01/18 09:25:22;;;;;;;44.95;26.45;;;;;;;6.17;83.94;102533.88;4954849;29;20398;-80
2022/01/18 09:27:48;;;;;;;41.67;25.83;;;;;;;6.14;84.30;102531.53;4954392;29;20445;-79
2022/01/18 09:30:15;;;;;;;43.35;26.58;;;;;;;6.26;84.14;102532.03;4949317;28;20413;-79
2022/01/18 09:32:41;;;;;;;37.10;25.13;;;;;;;6.47;83.57;102542.31;4951297;29;20414;-79
2022/01/18 09:35:07;;;;;;;37.10;25.42;;;;;;;6.56;83.45;102535.91;4954370;29;20904;-79
2022/01/18 09:37:33;;;;;;;37.50;24.63;;;;;;;6.50;83.00;102534.75;4938913;29;20402;-79
2022/01/18 09:39:58;;;;;;;37.13;25.75;;;;;;;6.52;82.89;102532.72;4954255;29;20476;-79
2022/01/18 09:42:32;;;;;;;38.53;25.73;;;;;;;6.60;82.68;102540.81;4952306;28;20425;-79
2022/01/18 09:44:59;;;;;;;34.92;24.20;;;;;;;6.57;82.48;102543.00;4953481;29;20464;-79
2022/01/18 09:47:28;;;;;;;39.33;24.92;;;;;;;6.53;82.56;102539.81;4951305;28;20414;-79
2022/01/18 09:49:59;;;;;;;34.88;23.65;;;;;;;6.43;82.64;102541.81;4937088;29;20414;-79
2022/01/18 09:52:24;;;;;;;35.22;24.27;;;;;;;6.35;82.93;102541.81;4950331;29;20386;-78
2022/01/18 09:54:50;;;;;;;36.17;24.40;;;;;;;6.64;82.78;102546.72;4950626;28;20468;-78
2022/01/18 09:57:16;;;;;;;38.73;25.17;;;;;;;6.65;82.49;102546.53;4953294;28;20508;-79
2022/01/18 09:59:41;;;;;;;41.30;26.77;;;;;;;6.66;82.53;102550.06;4954142;29;20413;-79
2022/01/18 10:02:10;;;;;;;46.10;28.57;;;;;;;6.77;81.99;102544.34;4953790;29;20429;-78
2022/01/18 10:04:44;;;;;;;39.53;25.90;;;;;;;6.95;81.72;102538.78;4953183;29;20413;-79
2022/01/18 10:07:10;;;;;;;40.57;26.00;;;;;;;7.06;81.00;102533.03;4953861;29;20952;-79
2022/01/18 10:09:37;;;;;;;37.03;24.60;;;;;;;7.23;80.90;102532.81;4953843;29;20394;-78
2022/01/18 10:12:13;;;;;;;39.05;26.75;;;;;;;7.50;79.87;102536.97;4953523;29;20409;-79
2022/01/18 10:14:50;;;;;;;44.93;27.00;;;;;;;7.49;78.05;102537.13;4938658;29;20469;-77
2022/01/18 10:17:30;;;;;;;37.55;24.30;;;;;;;7.63;77.96;102534.53;4953995;29;20417;-78
2022/01/18 10:20:03;;;;;;;38.05;27.10;;;;;;;7.84;77.63;102539.31;4953611;29;20421;-78
2022/01/18 10:22:35;;;;;;;33.60;24.42;;;;;;;7.96;76.74;102537.94;4942458;28;20430;-79
2022/01/18 10:25:25;;;;;;;32.28;25.02;;;;;;;8.03;76.69;102530.81;4952391;29;20457;-79
2022/01/18 10:27:53;;;;;;;36.75;24.67;;;;;;;7.96;76.29;102528.97;4952528;29;20460;-78
2022/01/18 10:30:49;;;;;;;34.80;24.60;;;;;;;8.21;76.33;102541.31;4947395;29;20413;-79
2022/01/18 10:33:21;;;;;;;32.20;22.57;;;;;;;8.09;75.96;102534.63;4947768;28;20537;-79
2022/01/18 10:36:13;;;;;;;32.33;21.70;;;;;;;8.04;75.82;102529.75;4950397;29;20413;-79
2022/01/18 10:38:43;;;;;;;28.42;20.40;;;;;;;8.14;76.13;102524.97;4951714;29;20418;-78
2022/01/18 10:41:28;;;;;;;28.83;19.23;;;;;;;8.08;75.12;102528.38;4953157;29;20430;-79
2022/01/18 10:44:15;;;;;;;27.38;19.67;;;;;;;8.31;75.02;102533.84;4955829;28;20427;-78
2022/01/18 10:46:56;;;;;;;24.58;17.92;;;;;;;8.36;74.58;102526.06;4954284;28;20409;-78
2022/01/18 10:49:25;;;;;;;26.30;18.23;;;;;;;8.34;74.06;102515.41;4949202;28;20441;-78
2022/01/18 10:52:02;;;;;;;24.73;17.23;;;;;;;8.19;74.12;102519.03;4953945;28;20448;-78
2022/01/18 10:54:38;;;;;;;25.13;17.45;;;;;;;8.04;74.32;102518.13;4954894;28;20410;-78
2022/01/18 10:57:06;;;;;;;23.67;17.48;;;;;;;7.95;74.79;102511.09;4934394;29;20415;-78
2022/01/18 10:59:32;;;;;;;36.03;19.27;;;;;;;7.91;74.84;102502.50;4932361;29;20908;-78
2022/01/18 11:02:07;;;;;;;24.27;17.57;;;;;;;7.84;75.49;102499.66;4933059;29;20423;-77
2022/01/18 11:04:33;;;;;;;30.92;19.30;;;;;;;7.83;75.40;102499.88;4931384;29;20433;-78
2022/01/18 11:07:04;;;;;;;24.97;18.17;;;;;;;8.02;75.27;102499.41;4932768;29;20498;-79
2022/01/18 11:09:30;;;;;;;26.20;16.30;;;;;;;8.04;75.23;102491.13;4952414;28;20405;-78
2022/01/18 11:11:55;;;;;;;20.88;13.75;;;;;;;7.98;74.12;102481.03;4946605;29;20414;-78
2022/01/18 11:14:22;;;;;;;21.08;14.82;;;;;;;8.04;73.54;102480.31;4944689;29;20399;-78
2022/01/18 11:16:49;;;;;;;20.85;14.02;;;;;;;8.09;73.54;102478.78;4938646;29;20986;-79
2022/01/18 11:22:00;;;;;;;18.52;12.77;;;;;;;8.09;73.33;102473.38;4940074;29;20434;-78
2022/01/18 11:24:28;;;;;;;21.83;12.73;;;;;;;8.09;73.68;102473.38;4942551;29;20411;-79
2022/01/18 11:26:53;;;;;;;18.08;12.88;;;;;;;8.27;73.07;102471.19;4949276;29;20409;-79
2022/01/18 11:29:21;;;;;;;18.75;12.50;;;;;;;8.28;72.72;102466.66;4945245;29;20410;-78
2022/01/18 11:31:52;;;;;;;16.97;12.07;;;;;;;8.26;72.86;102466.84;4946323;29;20755;-78
2022/01/18 11:34:44;;;;;;;27.93;11.60;;;;;;;8.44;72.15;102461.13;4939401;29;20408;-78
2022/01/18 11:37:26;;;;;;;13.48;9.07;;;;;;;8.51;71.23;102470.19;4930047;29;20418;-78
2022/01/18 11:40:04;;;;;;;14.80;9.40;;;;;;;8.59;70.50;102463.88;4940477;29;20419;-78
2022/01/18 11:42:51;;;;;;;15.80;9.07;;;;;;;8.57;70.69;102455.09;4935959;29;20824;-78
2022/01/18 11:45:25;;;;;;;40.13;16.05;;;;;;;8.56;70.83;102448.84;4936360;29;20444;-78
2022/01/18 11:48:11;;;;;;;16.90;9.57;;;;;;;8.76;69.89;102458.13;4947171;29;20815;-78
2022/01/18 11:50:41;;;;;;;14.13;8.27;;;;;;;8.74;70.21;102459.34;4940007;29;20434;-78
2022/01/18 11:53:26;;;;;;;9.10;6.30;;;;;;;8.64;69.87;102445.25;4930058;29;21090;-78
2022/01/18 11:55:54;;;;;;;12.75;7.47;;;;;;;8.36;69.33;102449.56;4934202;28;20788;-78
2022/01/18 11:58:21;;;;;;;12.75;7.10;;;;;;;8.22;70.25;102448.47;4958273;28;20417;-78
2022/01/18 12:00:50;;;;;;;13.82;7.63;;;;;;;8.06;70.40;102445.88;4959648;28;20415;-77
2022/01/18 12:03:22;;;;;;;12.10;7.18;;;;;;;7.90;71.40;102444.16;4958385;28;20424;-78
2022/01/18 12:05:48;;;;;;;13.10;7.68;;;;;;;7.79;71.28;102433.75;4963573;28;20421;-78
2022/01/18 12:08:46;;;;;;;13.70;7.20;;;;;;;7.87;71.31;102436.38;4943918;28;20790;-78
2022/01/18 12:11:20;;;;;;;11.47;5.70;;;;;;;7.76;71.52;102436.81;4895584;29;20434;-78
2022/01/18 12:13:47;;;;;;;9.38;5.32;;;;;;;7.64;71.39;102440.94;4958389;28;20406;-78
2022/01/18 12:16:26;;;;;;;6.10;4.93;;;;;;;7.60;70.61;102435.06;4971755;28;20420;-78
2022/01/18 12:19:06;;;;;;;12.75;4.78;;;;;;;7.64;70.39;102432.84;4936054;29;20515;-78
2022/01/18 12:21:34;;;;;;;12.88;5.57;;;;;;;7.61;70.92;102430.47;4946983;28;20423;-80
2022/01/18 12:24:18;;;;;;;9.15;5.68;;;;;;;7.69;71.13;102430.44;4925413;28;20440;-78
2022/01/18 12:26:47;;;;;;;7.30;4.80;;;;;;;7.75;70.70;102421.63;4943499;28;20424;-77
2022/01/18 12:34:43;;;;;;;3.72;2.25;;;;;;;7.50;68.93;102422.81;4942782;28;20409;-78
2022/01/18 12:37:13;;;;;;;3.72;1.77;;;;;;;7.46;67.58;102424.16;4945297;28;20444;-77
2022/01/18 12:39:51;;;;;;;3.92;1.95;;;;;;;7.38;67.88;102419.66;4951616;28;20423;-78
2022/01/18 12:45:14;;;;;;;3.70;1.60;;;;;;;7.35;69.29;102421.84;4933360;29;20440;-77
2022/01/18 12:47:49;;;;;;;4.78;2.00;;;;;;;7.31;69.11;102418.66;4951637;29;20773;-79